Time;durP1;ratioP1;P1;durP2;ratioP2;P2;SDS_P1;SDS_P2;PMS_P1;PMS_P2;Temp;Humidity;BMP_temperature;BMP_pressure;BME280_temperature;BME280_humidity;BME280_pressure;Samples;Min_cycle;Max_cycle;Signal;HPM_P1;HPM_P2
2023/08/30 00:02:05;;;;;;;11.37;10.27;;;16.30;99.90;;;;;;4952650;28;20220;-85
2023/08/30 00:04:30;;;;;;;10.67;9.60;;;16.30;99.90;;;;;;4953308;28;20209;-85
2023/08/30 00:06:56;;;;;;;14.23;10.20;;;16.30;99.90;;;;;;4952963;28;20189;-85
2023/08/30 00:09:21;;;;;;;12.90;10.57;;;16.20;1.00;;;;;;4951736;28;20279;-84
2023/08/30 00:11:47;;;;;;;11.80;10.60;;;16.20;1.00;;;;;;4949781;28;20695;-85
2023/08/30 00:14:12;;;;;;;15.87;10.90;;;16.20;1.00;;;;;;4954595;28;20243;-84
2023/08/30 00:16:38;;;;;;;12.23;10.90;;;16.10;1.00;;;;;;4953522;28;20215;-84
2023/08/30 00:19:03;;;;;;;11.70;10.50;;;16.10;21.70;;;;;;4955190;28;20602;-85
2023/08/30 00:21:30;;;;;;;11.77;10.57;;;16.00;95.70;;;;;;4955743;28;20232;-85
2023/08/30 00:23:55;;;;;;;11.87;10.73;;;16.00;99.90;;;;;;4956903;28;20201;-84
2023/08/30 00:26:21;;;;;;;11.60;10.37;;;15.90;99.90;;;;;;4957376;28;20809;-84
2023/08/30 00:28:46;;;;;;;13.00;11.03;;;15.90;99.90;;;;;;4949397;28;20679;-85
2023/08/30 00:31:12;;;;;;;13.00;11.37;;;15.90;1.00;;;;;;4955098;28;20196;-84
2023/08/30 00:33:37;;;;;;;20.60;12.60;;;15.90;1.00;;;;;;4954668;28;20188;-84
2023/08/30 00:36:03;;;;;;;12.53;11.20;;;15.80;1.00;;;;;;4957447;28;20212;-85
2023/08/30 00:38:29;;;;;;;13.10;11.50;;;15.80;1.00;;;;;;4957231;28;20192;-84
2023/08/30 00:40:55;;;;;;;13.00;11.07;;;15.80;1.00;;;;;;4957245;28;20199;-84
2023/08/30 00:43:20;;;;;;;13.53;11.77;;;15.80;1.00;;;;;;4957448;28;20993;-85
2023/08/30 00:45:47;;;;;;;13.70;11.40;;;15.80;1.00;;;;;;4956152;28;20283;-85
2023/08/30 00:48:15;;;;;;;17.33;11.70;;;15.80;1.00;;;;;;4958102;28;20192;-85
2023/08/30 00:50:42;;;;;;;15.50;11.80;;;15.80;1.00;;;;;;4951899;28;20444;-84
2023/08/30 00:53:08;;;;;;;15.87;11.63;;;15.80;1.00;;;;;;4952990;28;20467;-85
2023/08/30 00:55:35;;;;;;;14.23;11.93;;;15.80;5.10;;;;;;4955055;28;20817;-85
2023/08/30 00:58:02;;;;;;;22.00;12.80;;;15.70;54.30;;;;;;4960594;28;20199;-85
2023/08/30 01:00:29;;;;;;;17.60;12.27;;;15.70;92.60;;;;;;4955419;28;20616;-85
2023/08/30 01:02:56;;;;;;;15.43;11.57;;;15.60;99.90;;;;;;4951068;28;20991;-85
2023/08/30 01:05:22;;;;;;;13.00;11.80;;;15.60;99.90;;;;;;4954686;28;20447;-85
2023/08/30 01:07:51;;;;;;;13.80;12.40;;;15.60;99.90;;;;;;4955113;28;20443;-85
2023/08/30 01:10:18;;;;;;;13.03;11.63;;;15.60;1.00;;;;;;4955028;28;20451;-85
2023/08/30 01:12:48;;;;;;;14.60;11.63;;;15.50;1.00;;;;;;4968246;28;20533;-85
2023/08/30 01:15:19;;;;;;;15.70;12.40;;;15.50;1.00;;;;;;4949670;28;20468;-86
2023/08/30 01:17:48;;;;;;;16.80;13.23;;;15.50;1.00;;;;;;4947534;28;20444;-84
2023/08/30 01:20:17;;;;;;;16.33;12.17;;;15.50;1.00;;;;;;4954535;28;20450;-85
2023/08/30 01:22:51;;;;;;;14.53;13.23;;;15.40;1.00;;;;;;4957544;28;20510;-85
2023/08/30 01:25:33;;;;;;;15.43;13.83;;;15.40;1.00;;;;;;4955969;28;20470;-85
2023/08/30 01:28:04;;;;;;;17.77;13.57;;;15.40;16.00;;;;;;4941370;28;20496;-85
2023/08/30 01:30:31;;;;;;;17.33;12.20;;;15.30;99.90;;;;;;4946536;28;21077;-85
2023/08/30 01:32:58;;;;;;;14.53;12.40;;;15.20;99.90;;;;;;4955604;28;20475;-83
2023/08/30 01:35:24;;;;;;;13.50;11.77;;;15.20;99.90;;;;;;4956019;28;20451;-86
2023/08/30 01:37:51;;;;;;;18.63;13.87;;;15.20;99.90;;;;;;4952390;28;20450;-85
2023/08/30 01:40:18;;;;;;;14.70;13.13;;;15.20;99.90;;;;;;4954112;28;20462;-85
2023/08/30 01:42:45;;;;;;;15.40;13.87;;;15.20;1.00;;;;;;4955130;28;20560;-85
2023/08/30 01:45:13;;;;;;;13.90;12.50;;;15.10;1.00;;;;;;4954437;28;20980;-85
2023/08/30 01:47:40;;;;;;;14.23;12.80;;;15.10;1.00;;;;;;4950130;28;20456;-84
2023/08/30 01:50:07;;;;;;;14.57;13.03;;;15.00;1.00;;;;;;4954394;28;20862;-85
2023/08/30 01:52:32;;;;;;;17.50;15.70;;;15.00;1.00;;;;;;4970675;28;20801;-85
2023/08/30 01:54:59;;;;;;;17.03;14.50;;;15.00;1.00;;;;;;4947895;28;20454;-84
2023/08/30 01:57:25;;;;;;;17.20;15.50;;;15.00;1.00;;;;;;4950140;28;20251;-85
2023/08/30 01:59:52;;;;;;;17.10;15.30;;;15.00;1.00;;;;;;4951832;28;20444;-85
2023/08/30 02:02:17;;;;;;;17.87;15.73;;;14.90;1.00;;;;;;4953875;28;20251;-85
2023/08/30 02:04:43;;;;;;;19.13;15.60;;;14.90;1.00;;;;;;4979486;28;20528;-85
2023/08/30 02:07:17;;;;;;;17.27;15.27;;;14.90;1.00;;;;;;4960239;28;20289;-83
2023/08/30 02:09:53;;;;;;;17.77;15.47;;;14.90;1.00;;;;;;4964414;28;20204;-84
2023/08/30 02:12:22;;;;;;;18.23;15.57;;;14.90;1.00;;;;;;4966456;28;21000;-85
2023/08/30 02:14:49;;;;;;;17.50;15.67;;;14.80;1.00;;;;;;4969556;28;20889;-85
2023/08/30 02:17:15;;;;;;;18.43;15.43;;;14.90;1.00;;;;;;4953803;28;20439;-85
2023/08/30 02:19:43;;;;;;;21.20;17.23;;;14.90;1.00;;;;;;4955327;28;20455;-85
2023/08/30 02:22:09;;;;;;;17.37;15.67;;;14.90;1.00;;;;;;4968839;28;20486;-84
2023/08/30 02:24:34;;;;;;;18.83;16.60;;;14.90;1.00;;;;;;4956229;28;20446;-85
2023/08/30 02:27:00;;;;;;;21.70;16.97;;;14.90;1.00;;;;;;4947174;28;20200;-85
2023/08/30 02:29:26;;;;;;;17.80;15.90;;;14.90;1.00;;;;;;4951668;28;20192;-85
2023/08/30 02:31:51;;;;;;;19.67;17.57;;;14.80;1.00;;;;;;4951942;28;20699;-85
2023/08/30 02:34:17;;;;;;;22.70;18.47;;;14.90;1.00;;;;;;4953855;28;20207;-85
2023/08/30 02:36:42;;;;;;;22.30;16.70;;;14.80;5.40;;;;;;4953105;28;20187;-85
2023/08/30 02:39:08;;;;;;;20.63;18.20;;;14.80;24.10;;;;;;4969140;28;20188;-85
2023/08/30 02:41:34;;;;;;;20.90;18.67;;;14.80;40.70;;;;;;4950552;28;20200;-83
2023/08/30 02:44:00;;;;;;;20.37;18.10;;;14.80;70.70;;;;;;4967200;28;20661;-85
2023/08/30 02:46:25;;;;;;;22.03;17.30;;;14.70;95.90;;;;;;4956708;28;20184;-84
2023/08/30 02:48:51;;;;;;;17.90;16.00;;;14.70;99.90;;;;;;4952037;28;20789;-86
2023/08/30 02:51:17;;;;;;;22.30;17.80;;;14.70;78.30;;;;;;4954124;28;20194;-83
2023/08/30 02:53:42;;;;;;;22.87;17.90;;;14.70;68.20;;;;;;4968349;28;20286;-85
2023/08/30 02:56:08;;;;;;;23.30;17.47;;;14.70;99.90;;;;;;4965098;28;20436;-85
2023/08/30 02:58:33;;;;;;;19.43;16.47;;;14.60;99.90;;;;;;4953225;28;20191;-86
2023/08/30 03:01:00;;;;;;;22.93;16.97;;;14.60;99.90;;;;;;4957738;28;20775;-85
2023/08/30 03:03:25;;;;;;;18.90;16.90;;;14.60;99.90;;;;;;4949040;28;20210;-85
2023/08/30 03:05:51;;;;;;;19.03;16.43;;;14.60;99.90;;;;;;4952423;28;20442;-83
2023/08/30 03:08:16;;;;;;;24.93;16.60;;;14.50;99.90;;;;;;4954269;28;20187;-84
2023/08/30 03:10:42;;;;;;;21.67;16.93;;;14.50;99.90;;;;;;4954595;28;20195;-85
2023/08/30 03:13:07;;;;;;;23.77;17.70;;;14.50;99.90;;;;;;4954386;28;20221;-84
2023/08/30 03:15:33;;;;;;;21.50;18.20;;;14.50;99.90;;;;;;4951766;28;20560;-84
2023/08/30 03:17:59;;;;;;;20.70;16.30;;;14.50;99.90;;;;;;4946163;28;20203;-85
2023/08/30 03:20:25;;;;;;;19.30;17.30;;;14.40;99.90;;;;;;4953960;28;20457;-83
2023/08/30 03:22:51;;;;;;;20.83;17.00;;;14.40;99.90;;;;;;4952810;28;21004;-84
2023/08/30 03:25:16;;;;;;;18.50;16.40;;;14.40;99.90;;;;;;4962151;28;20266;-85
2023/08/30 03:27:44;;;;;;;19.30;17.03;;;14.30;99.90;;;;;;4949684;28;20190;-85
2023/08/30 03:30:10;;;;;;;21.30;17.17;;;14.40;99.90;;;;;;4953111;28;20199;-86
2023/08/30 03:32:36;;;;;;;22.90;16.67;;;14.30;99.90;;;;;;4953320;28;20844;-84
2023/08/30 03:35:03;;;;;;;19.53;15.90;;;14.30;99.90;;;;;;4953497;28;20526;-85
2023/08/30 03:37:29;;;;;;;18.23;15.63;;;14.30;99.90;;;;;;4968661;28;20439;-85
2023/08/30 03:39:54;;;;;;;19.73;16.37;;;14.30;99.90;;;;;;4952749;28;20480;-85
2023/08/30 03:42:20;;;;;;;20.13;17.50;;;14.40;99.90;;;;;;4947657;28;20215;-84
2023/08/30 03:44:45;;;;;;;18.67;16.53;;;14.40;99.90;;;;;;4949639;28;20563;-85
2023/08/30 03:47:10;;;;;;;18.20;16.23;;;14.50;99.90;;;;;;4952522;28;20646;-85
2023/08/30 03:49:36;;;;;;;19.63;15.90;;;14.50;99.90;;;;;;4954832;28;20226;-84
2023/08/30 03:52:02;;;;;;;20.77;16.50;;;14.60;99.90;;;;;;4955985;28;20235;-85
2023/08/30 03:54:27;;;;;;;18.80;16.57;;;14.60;99.90;;;;;;4956837;28;20210;-84
2023/08/30 03:56:53;;;;;;;18.67;16.70;;;14.60;99.90;;;;;;4956826;28;20226;-85
2023/08/30 03:59:18;;;;;;;18.93;16.57;;;14.70;99.90;;;;;;4951276;28;20690;-85
2023/08/30 04:01:45;;;;;;;20.43;18.20;;;14.70;99.90;;;;;;4954627;28;20216;-85
2023/08/30 04:04:10;;;;;;;20.00;16.60;;;14.70;99.90;;;;;;4955805;28;20188;-85
2023/08/30 04:06:36;;;;;;;22.20;18.10;;;14.80;99.90;;;;;;4954869;28;20457;-83
2023/08/30 04:09:01;;;;;;;22.80;17.70;;;14.80;95.40;;;;;;4952966;28;20311;-85
2023/08/30 04:11:27;;;;;;;18.93;17.00;;;14.80;56.70;;;;;;4956338;28;20191;-84
2023/08/30 04:13:52;;;;;;;18.93;17.03;;;14.80;47.20;;;;;;4956637;28;20583;-85
2023/08/30 04:16:18;;;;;;;21.47;17.90;;;14.90;24.60;;;;;;4955882;28;20207;-85
2023/08/30 04:18:43;;;;;;;22.77;15.90;;;14.90;29.20;;;;;;4955650;28;20528;-85
2023/08/30 04:21:09;;;;;;;20.40;17.03;;;14.90;19.10;;;;;;4955103;28;20190;-83
2023/08/30 04:23:35;;;;;;;18.07;16.17;;;14.90;10.30;;;;;;4956639;28;20559;-85
2023/08/30 04:26:00;;;;;;;18.40;16.50;;;14.90;9.40;;;;;;4950181;28;20220;-85
2023/08/30 04:28:29;;;;;;;22.37;16.53;;;14.90;6.20;;;;;;4943948;28;20450;-84
2023/08/30 04:30:55;;;;;;;18.63;15.77;;;14.90;6.70;;;;;;4955121;28;20220;-86
2023/08/30 04:33:21;;;;;;;18.80;16.80;;;14.90;5.80;;;;;;4956979;28;20520;-85
2023/08/30 04:35:51;;;;;;;19.07;16.10;;;14.90;1.50;;;;;;4955986;28;20448;-85
2023/08/30 04:38:16;;;;;;;20.10;15.70;;;14.90;1.00;;;;;;4956219;28;20180;-85
2023/08/30 04:40:42;;;;;;;17.63;15.73;;;14.90;3.70;;;;;;4952219;28;20482;-85
2023/08/30 04:43:07;;;;;;;19.50;16.67;;;14.90;11.50;;;;;;4972107;28;20218;-84
2023/08/30 04:45:34;;;;;;;18.57;16.60;;;15.00;1.00;;;;;;4957069;28;20202;-85
2023/08/30 04:48:00;;;;;;;17.40;15.67;;;15.00;1.00;;;;;;4953441;28;20192;-85
2023/08/30 04:50:25;;;;;;;17.77;15.83;;;15.00;1.60;;;;;;4956002;28;20538;-85
2023/08/30 04:52:51;;;;;;;17.60;15.13;;;15.00;1.00;;;;;;4975821;28;20212;-85
2023/08/30 04:55:17;;;;;;;15.70;13.87;;;15.00;1.00;;;;;;4956698;28;20199;-85
2023/08/30 04:57:44;;;;;;;20.57;14.90;;;15.00;1.00;;;;;;4957056;28;20188;-85
2023/08/30 05:00:12;;;;;;;16.80;15.00;;;15.10;1.00;;;;;;4955511;28;20239;-84
2023/08/30 05:02:37;;;;;;;17.67;14.80;;;15.10;1.00;;;;;;4955326;28;20988;-85
2023/08/30 05:05:03;;;;;;;18.33;15.50;;;15.10;1.00;;;;;;4954520;28;20486;-85
2023/08/30 05:07:29;;;;;;;16.93;14.97;;;15.10;1.00;;;;;;4955197;28;20192;-83
2023/08/30 05:09:54;;;;;;;18.87;15.20;;;15.10;1.00;;;;;;4954987;28;20231;-85
2023/08/30 05:12:20;;;;;;;20.07;15.07;;;15.10;1.00;;;;;;4954295;28;20480;-84
2023/08/30 05:14:46;;;;;;;16.50;14.90;;;15.20;1.00;;;;;;4955079;28;20192;-85
2023/08/30 05:17:11;;;;;;;19.20;15.07;;;15.20;1.00;;;;;;4954710;28;20674;-84
2023/08/30 05:19:37;;;;;;;15.70;13.70;;;15.20;1.00;;;;;;4970152;28;20471;-85
2023/08/30 05:22:03;;;;;;;16.40;14.70;;;15.20;1.00;;;;;;4950441;28;20302;-85
2023/08/30 05:24:29;;;;;;;15.03;13.43;;;15.20;1.00;;;;;;4956769;28;20658;-86
2023/08/30 05:26:54;;;;;;;16.00;14.13;;;15.20;1.00;;;;;;4971141;28;20474;-83
2023/08/30 05:29:20;;;;;;;17.53;14.47;;;15.20;1.00;;;;;;4956445;28;20192;-85
2023/08/30 05:31:45;;;;;;;15.70;14.07;;;15.20;1.00;;;;;;4955983;28;20218;-85
2023/08/30 05:34:11;;;;;;;14.47;13.03;;;15.30;1.00;;;;;;4956246;28;20192;-85
2023/08/30 05:36:36;;;;;;;15.13;13.60;;;15.30;99.90;;;;;;4968961;28;20195;-85
2023/08/30 05:39:03;;;;;;;18.13;13.33;;;15.30;99.90;;;;;;4949173;28;20675;-85
2023/08/30 05:41:29;;;;;;;15.30;13.70;;;15.40;1.00;;;;;;4954875;28;20196;-85
2023/08/30 05:43:55;;;;;;;15.03;13.43;;;15.50;1.00;;;;;;4951710;28;20797;-85
2023/08/30 05:46:20;;;;;;;17.43;14.57;;;15.60;99.90;;;;;;4953672;28;20542;-85
2023/08/30 05:48:49;;;;;;;21.33;15.13;;;15.70;1.00;;;;;;4950813;28;20299;-85
2023/08/30 05:51:15;;;;;;;14.13;12.63;;;16.10;1.00;;;;;;4944985;28;21920;-85
2023/08/30 05:53:40;;;;;;;14.77;12.97;;;16.50;16.50;;;;;;4951269;28;20476;-85
2023/08/30 05:56:06;;;;;;;15.37;12.80;;;16.60;99.90;;;;;;4950335;28;20193;-85
2023/08/30 05:58:32;;;;;;;20.73;12.90;;;16.70;1.00;;;;;;4940411;28;20210;-84
2023/08/30 06:00:59;;;;;;;12.00;10.80;;;16.80;1.00;;;;;;4952242;28;20185;-85
2023/08/30 06:03:25;;;;;;;16.40;12.63;;;16.80;99.90;;;;;;4947456;28;20460;-85
2023/08/30 06:05:50;;;;;;;13.43;12.03;;;17.00;99.90;;;;;;4948951;28;20452;-84
2023/08/30 06:08:17;;;;;;;14.20;12.23;;;17.10;99.90;;;;;;4954780;28;20682;-85
2023/08/30 06:10:43;;;;;;;12.63;11.33;;;17.30;1.00;;;;;;4955862;28;20192;-84
2023/08/30 06:13:08;;;;;;;14.93;11.77;;;17.50;1.00;;;;;;4951194;28;21089;-86
2023/08/30 06:15:35;;;;;;;13.70;11.03;;;17.70;99.90;;;;;;4952797;28;20212;-86
2023/08/30 06:18:00;;;;;;;12.83;11.27;;;17.90;99.90;;;;;;4961219;28;20571;-86
2023/08/30 06:20:26;;;;;;;15.77;11.30;;;18.00;24.40;;;;;;4956559;28;20436;-84
2023/08/30 06:22:52;;;;;;;15.50;11.13;;;18.20;1.00;;;;;;4951803;28;20238;-85
2023/08/30 06:25:17;;;;;;;11.37;10.27;;;18.60;1.00;;;;;;4954161;28;20944;-87
2023/08/30 06:27:56;;;;;;;11.03;9.77;;;20.60;99.90;;;;;;4957186;28;20202;-85
2023/08/30 06:30:22;;;;;;;11.00;9.90;;;21.10;1.00;;;;;;4949880;28;20195;-86
2023/08/30 06:32:48;;;;;;;9.33;8.33;;;21.70;1.00;;;;;;4953379;28;20571;-87
2023/08/30 06:35:14;;;;;;;9.40;8.50;;;24.40;1.00;;;;;;4973843;28;20453;-87
2023/08/30 06:37:40;;;;;;;16.30;9.30;;;25.90;1.00;;;;;;4945393;28;20445;-86
2023/08/30 06:40:06;;;;;;;10.10;7.80;;;25.80;1.00;;;;;;4962337;28;20651;-87
2023/08/30 06:42:32;;;;;;;9.07;7.70;;;27.00;1.00;;;;;;4947839;28;20240;-87
2023/08/30 06:44:57;;;;;;;9.33;7.83;;;29.20;1.00;;;;;;4953302;28;20475;-87
2023/08/30 06:47:23;;;;;;;10.00;6.87;;;30.30;1.00;;;;;;4957661;28;20197;-87
2023/08/30 06:49:48;;;;;;;7.80;6.23;;;31.90;1.00;;;;;;4952721;28;20263;-87
2023/08/30 06:52:14;;;;;;;6.80;6.20;;;33.40;1.00;;;;;;4967496;28;20213;-88
2023/08/30 06:54:39;;;;;;;6.70;6.00;;;34.90;1.00;;;;;;4954716;28;20192;-86
2023/08/30 06:57:06;;;;;;;6.47;5.77;;;35.80;1.00;;;;;;4954612;28;20177;-86
2023/08/30 06:59:32;;;;;;;6.97;6.37;;;36.70;1.00;;;;;;4952590;28;20260;-87
2023/08/30 07:01:58;;;;;;;8.83;5.63;;;36.40;1.00;;;;;;4949501;28;20687;-87
2023/08/30 07:04:23;;;;;;;6.43;5.17;;;36.70;1.00;;;;;;4956872;28;20906;-88
2023/08/30 07:06:49;;;;;;;5.50;5.00;;;37.60;1.00;;;;;;4965532;28;20247;-88
2023/08/30 07:09:14;;;;;;;5.73;5.13;;;38.50;1.00;;;;;;4955387;28;20188;-86
2023/08/30 07:11:44;;;;;;;11.73;5.40;;;39.40;1.00;;;;;;4956123;28;20288;-88
2023/08/30 07:14:09;;;;;;;6.90;5.07;;;40.10;1.00;;;;;;4958271;28;20227;-88
2023/08/30 07:16:35;;;;;;;6.23;4.80;;;40.90;1.00;;;;;;4958890;28;20444;-88
2023/08/30 07:19:01;;;;;;;5.33;4.57;;;41.20;1.00;;;;;;4955617;28;20256;-88
2023/08/30 07:21:27;;;;;;;8.40;5.40;;;41.60;1.00;;;;;;4959935;28;20199;-86
2023/08/30 07:23:53;;;;;;;6.57;4.27;;;39.90;1.00;;;;;;4948885;28;20436;-88
2023/08/30 07:26:19;;;;;;;6.37;4.70;;;38.10;1.00;;;;;;4957249;28;20432;-88
2023/08/30 07:28:45;;;;;;;5.70;3.93;;;36.00;1.00;;;;;;4953935;28;20201;-85
2023/08/30 07:31:14;;;;;;;6.90;4.30;;;33.70;1.00;;;;;;4955076;28;20199;-87
2023/08/30 07:33:39;;;;;;;7.93;4.40;;;31.50;1.00;;;;;;4950039;28;21184;-89
2023/08/30 07:36:05;;;;;;;11.63;4.67;;;29.70;1.00;;;;;;4951859;28;20448;-87
2023/08/30 07:38:31;;;;;;;5.63;4.00;;;28.40;1.00;;;;;;4955307;28;20189;-87
2023/08/30 07:40:56;;;;;;;6.60;4.20;;;27.60;1.00;;;;;;4964426;28;20244;-88
2023/08/30 07:43:22;;;;;;;10.13;4.60;;;27.50;1.00;;;;;;4945946;28;20212;-88
2023/08/30 07:45:47;;;;;;;8.47;4.80;;;28.70;1.00;;;;;;4956550;28;20268;-86
2023/08/30 07:48:13;;;;;;;8.23;4.20;;;31.60;1.00;;;;;;4972620;28;20189;-88
2023/08/30 07:50:38;;;;;;;4.33;3.60;;;33.10;1.00;;;;;;4961911;28;20185;-88
2023/08/30 07:53:04;;;;;;;5.73;3.60;;;35.30;1.00;;;;;;4948952;28;20229;-87
2023/08/30 07:55:30;;;;;;;6.23;3.80;;;35.10;1.00;;;;;;4949605;28;20193;-86
2023/08/30 07:57:55;;;;;;;5.33;3.90;;;34.10;1.00;;;;;;4946497;28;20190;-85
2023/08/30 08:00:21;;;;;;;7.43;3.80;;;32.00;1.00;;;;;;4949161;28;20181;-86
2023/08/30 08:02:46;;;;;;;10.90;3.70;;;30.00;1.00;;;;;;4949685;28;20243;-88
2023/08/30 08:05:12;;;;;;;5.30;4.00;;;28.70;1.00;;;;;;4953669;28;20196;-87
2023/08/30 08:07:42;;;;;;;6.17;4.70;;;27.70;1.00;;;;;;4944307;28;20186;-87
2023/08/30 08:10:09;;;;;;;7.17;4.70;;;26.50;1.00;;;;;;4951251;28;20185;-85
2023/08/30 08:12:34;;;;;;;11.07;5.60;;;25.50;1.00;;;;;;4948445;28;21004;-84
2023/08/30 08:15:00;;;;;;;6.57;5.97;;;24.60;1.00;;;;;;4953536;28;20432;-86
2023/08/30 08:17:26;;;;;;;6.87;5.77;;;23.80;1.00;;;;;;4954205;28;20181;-87
2023/08/30 08:19:51;;;;;;;7.00;5.60;;;23.20;1.00;;;;;;4952926;28;20218;-86
2023/08/30 08:22:17;;;;;;;7.73;5.23;;;23.00;1.00;;;;;;4952500;28;20726;-86
2023/08/30 08:24:43;;;;;;;7.37;5.90;;;22.90;1.00;;;;;;4948438;28;20700;-86
2023/08/30 08:27:09;;;;;;;7.53;5.37;;;22.90;1.00;;;;;;4949116;28;20567;-85
2023/08/30 08:29:35;;;;;;;8.93;5.63;;;23.10;1.00;;;;;;4948867;28;20479;-84
2023/08/30 08:32:00;;;;;;;6.47;5.67;;;23.20;1.00;;;;;;4960934;28;20201;-87
2023/08/30 08:34:26;;;;;;;7.67;5.10;;;23.50;1.00;;;;;;4962505;28;20525;-87
2023/08/30 08:36:51;;;;;;;7.27;5.57;;;23.60;1.00;;;;;;4969789;28;20199;-85
2023/08/30 08:39:18;;;;;;;6.10;5.33;;;23.70;1.00;;;;;;4966564;28;20278;-86
2023/08/30 08:41:44;;;;;;;6.10;4.87;;;23.80;1.00;;;;;;4950928;28;20691;-86
2023/08/30 08:44:11;;;;;;;6.20;5.50;;;23.80;1.00;;;;;;4951369;28;20479;-86
2023/08/30 08:46:38;;;;;;;8.10;5.20;;;23.80;1.00;;;;;;4953050;28;20462;-85
2023/08/30 08:49:28;;;;;;;6.70;4.73;;;23.60;1.00;;;;;;4952060;28;20440;-86
2023/08/30 08:51:54;;;;;;;5.20;4.70;;;23.40;1.00;;;;;;4954791;28;20463;-86
2023/08/30 08:54:20;;;;;;;7.77;4.80;;;23.10;1.00;;;;;;4968519;28;20536;-86
2023/08/30 08:56:45;;;;;;;5.37;4.83;;;22.90;1.00;;;;;;4948170;28;20526;-87
2023/08/30 08:59:11;;;;;;;10.43;4.97;;;22.60;1.00;;;;;;4949429;28;20194;-85
2023/08/30 09:01:39;;;;;;;5.17;4.67;;;22.40;1.00;;;;;;4950318;28;20205;-85
2023/08/30 09:04:10;;;;;;;5.70;4.70;;;22.30;1.00;;;;;;4954271;28;20192;-85
2023/08/30 09:06:37;;;;;;;5.80;4.70;;;22.20;1.00;;;;;;4949511;28;20486;-85
2023/08/30 09:09:03;;;;;;;4.90;4.30;;;22.20;1.00;;;;;;4953895;28;20472;-85
2023/08/30 09:11:29;;;;;;;4.90;4.33;;;22.40;1.00;;;;;;4949524;28;20552;-85
2023/08/30 09:13:55;;;;;;;5.17;4.60;;;22.70;1.00;;;;;;4965283;28;21029;-86
2023/08/30 09:16:21;;;;;;;9.33;4.00;;;22.80;1.00;;;;;;4956171;28;20182;-86
2023/08/30 09:19:00;;;;;;;7.87;4.90;;;22.90;1.00;;;;;;4955086;28;20675;-85
2023/08/30 09:21:27;;;;;;;5.80;4.03;;;23.40;1.00;;;;;;4952874;28;20215;-84
2023/08/30 09:24:02;;;;;;;5.43;3.80;;;23.60;1.00;;;;;;4957014;28;20477;-84
2023/08/30 09:26:31;;;;;;;6.53;4.43;;;23.50;1.00;;;;;;4960145;28;20425;-84
2023/08/30 09:29:04;;;;;;;6.30;3.97;;;23.30;1.00;;;;;;4948224;28;20435;-85
2023/08/30 09:31:37;;;;;;;4.20;3.80;;;23.10;1.00;;;;;;4954764;28;20853;-84
2023/08/30 09:34:03;;;;;;;6.23;3.20;;;23.00;1.00;;;;;;4953971;28;20803;-85
2023/08/30 09:36:38;;;;;;;6.03;3.53;;;23.10;1.00;;;;;;4957865;28;20466;-85
2023/08/30 09:39:05;;;;;;;4.30;3.90;;;23.20;1.00;;;;;;4947238;28;20470;-85
2023/08/30 09:41:32;;;;;;;3.43;3.10;;;23.80;1.00;;;;;;4952786;28;20486;-85
2023/08/30 09:43:59;;;;;;;3.70;3.23;;;24.20;1.00;;;;;;4958115;28;20448;-85
2023/08/30 09:46:25;;;;;;;5.33;3.13;;;24.50;1.00;;;;;;4953875;28;20496;-85
2023/08/30 09:48:50;;;;;;;3.30;2.60;;;24.70;1.00;;;;;;4955839;28;20448;-85
2023/08/30 09:51:20;;;;;;;4.50;2.77;;;24.60;1.00;;;;;;4968977;28;20444;-85
2023/08/30 09:53:50;;;;;;;5.33;2.97;;;24.30;1.00;;;;;;4953999;28;20199;-85
2023/08/30 09:56:18;;;;;;;5.93;2.90;;;23.80;1.00;;;;;;4952745;28;20877;-85
2023/08/30 09:58:44;;;;;;;4.30;2.60;;;23.30;1.00;;;;;;4957776;28;20450;-84
2023/08/30 10:01:10;;;;;;;4.43;3.07;;;22.70;1.00;;;;;;4956060;28;20462;-83
2023/08/30 10:03:36;;;;;;;5.80;3.20;;;22.20;1.00;;;;;;4951719;28;20480;-84
2023/08/30 10:06:05;;;;;;;4.37;3.47;;;21.80;1.00;;;;;;4952404;28;20508;-85
2023/08/30 10:08:32;;;;;;;4.37;3.73;;;21.40;1.00;;;;;;4952377;28;20465;-85
2023/08/30 10:10:58;;;;;;;4.73;4.00;;;21.00;1.00;;;;;;4952240;28;20436;-85
2023/08/30 10:13:25;;;;;;;7.90;4.43;;;20.60;71.10;;;;;;4951641;28;20495;-86
2023/08/30 10:15:57;;;;;;;5.63;4.43;;;20.10;99.90;;;;;;4945133;28;20446;-85
2023/08/30 10:18:28;;;;;;;11.20;4.37;;;19.90;1.00;;;;;;4951026;28;20462;-85
2023/08/30 10:20:55;;;;;;;7.13;5.00;;;19.70;22.90;;;;;;4951345;28;20443;-85
2023/08/30 10:23:22;;;;;;;5.10;4.60;;;19.50;71.20;;;;;;4952984;28;20850;-84
2023/08/30 10:25:50;;;;;;;6.37;5.23;;;19.30;99.90;;;;;;4947381;28;20480;-85
2023/08/30 10:28:16;;;;;;;7.77;4.70;;;19.20;1.00;;;;;;4944297;28;20462;-85
2023/08/30 10:30:42;;;;;;;10.23;5.00;;;19.20;3.30;;;;;;4948427;28;21167;-83
2023/08/30 10:33:16;;;;;;;6.00;4.80;;;19.20;99.90;;;;;;4945175;28;20495;-86
2023/08/30 10:35:49;;;;;;;5.90;4.93;;;19.20;99.90;;;;;;4953215;28;20521;-85
2023/08/30 10:38:28;;;;;;;6.70;4.93;;;19.20;92.90;;;;;;4967590;28;20445;-85
2023/08/30 10:40:54;;;;;;;6.70;5.43;;;19.40;99.90;;;;;;4943635;28;20451;-86
2023/08/30 10:43:33;;;;;;;6.03;4.70;;;19.70;1.00;;;;;;4953368;28;20881;-85
2023/08/30 10:46:02;;;;;;;5.33;4.53;;;19.80;99.90;;;;;;4953621;28;20455;-84
2023/08/30 10:48:39;;;;;;;5.20;4.70;;;20.00;99.90;;;;;;4962234;28;20437;-85
2023/08/30 10:51:19;;;;;;;5.00;4.50;;;20.30;1.00;;;;;;4947473;28;20534;-85
2023/08/30 10:53:56;;;;;;;6.50;5.80;;;20.40;1.00;;;;;;4947530;28;20450;-84
2023/08/30 10:56:27;;;;;;;5.70;5.13;;;20.70;99.90;;;;;;4958529;28;21182;-86
2023/08/30 10:58:53;;;;;;;5.77;5.27;;;20.90;99.90;;;;;;4953057;28;20445;-85
2023/08/30 11:01:19;;;;;;;7.30;6.57;;;20.80;99.90;;;;;;4939336;28;20451;-85
2023/08/30 11:03:44;;;;;;;8.23;5.30;;;20.80;1.00;;;;;;4953501;28;20268;-87
2023/08/30 11:06:14;;;;;;;6.20;5.50;;;20.80;99.90;;;;;;4951113;28;20228;-86
2023/08/30 11:08:39;;;;;;;6.83;6.13;;;20.60;1.00;;;;;;4947424;28;20190;-85
2023/08/30 11:11:08;;;;;;;7.47;6.03;;;20.10;1.00;;;;;;4949736;28;20447;-85
2023/08/30 11:13:34;;;;;;;7.87;6.17;;;19.70;97.80;;;;;;4947981;28;20222;-85
2023/08/30 11:16:04;;;;;;;6.83;6.23;;;19.50;1.00;;;;;;4961321;28;20443;-85
2023/08/30 11:18:38;;;;;;;5.70;5.20;;;19.30;99.90;;;;;;4951393;28;20442;-85
2023/08/30 11:21:04;;;;;;;5.67;5.17;;;19.20;1.00;;;;;;4950420;28;20847;-84
2023/08/30 11:23:29;;;;;;;6.20;5.60;;;19.10;99.90;;;;;;4945882;28;20484;-84
2023/08/30 11:25:55;;;;;;;6.47;5.87;;;19.30;1.00;;;;;;4948591;28;20451;-84
2023/08/30 11:28:24;;;;;;;6.20;5.60;;;19.50;1.00;;;;;;4947913;28;20595;-85
2023/08/30 11:30:54;;;;;;;5.43;4.93;;;19.60;1.00;;;;;;4949358;28;20192;-85
2023/08/30 11:33:20;;;;;;;6.53;5.27;;;19.80;1.00;;;;;;4951016;28;20575;-85
2023/08/30 11:35:49;;;;;;;6.07;5.00;;;20.00;1.00;;;;;;4952913;28;20791;-84
2023/08/30 11:38:15;;;;;;;5.07;4.67;;;20.10;1.00;;;;;;4947306;28;20932;-83
2023/08/30 11:40:41;;;;;;;5.97;5.43;;;20.10;99.90;;;;;;4949731;28;20527;-87
2023/08/30 11:43:07;;;;;;;5.53;5.00;;;20.00;1.00;;;;;;4953584;28;20231;-85
2023/08/30 11:45:34;;;;;;;5.67;5.00;;;19.80;3.20;;;;;;4946880;28;20224;-85
2023/08/30 11:48:00;;;;;;;6.00;5.40;;;19.50;99.90;;;;;;4948924;28;20438;-85
2023/08/30 11:50:26;;;;;;;6.33;5.73;;;19.20;1.00;;;;;;4950082;28;20836;-85
2023/08/30 11:52:53;;;;;;;5.53;5.00;;;19.10;99.90;;;;;;4949828;28;20501;-85
2023/08/30 11:55:21;;;;;;;4.57;4.17;;;19.00;1.00;;;;;;4951202;28;20455;-85
2023/08/30 11:57:50;;;;;;;5.53;5.03;;;19.00;99.90;;;;;;4957238;28;20513;-84
2023/08/30 12:00:18;;;;;;;4.20;3.80;;;19.00;99.90;;;;;;4955016;28;20965;-82
2023/08/30 12:02:44;;;;;;;4.20;3.80;;;19.10;99.90;;;;;;4950909;28;20483;-84
2023/08/30 12:05:11;;;;;;;5.10;4.60;;;19.10;99.90;;;;;;4955675;28;20446;-85
2023/08/30 12:07:38;;;;;;;5.03;4.53;;;19.20;99.90;;;;;;4954429;28;20437;-85
2023/08/30 12:10:08;;;;;;;6.30;5.63;;;19.20;1.00;;;;;;4958443;28;21063;-84
2023/08/30 12:12:36;;;;;;;5.40;4.90;;;19.20;1.00;;;;;;4955483;28;20457;-84
2023/08/30 12:15:09;;;;;;;6.23;5.60;;;19.10;1.00;;;;;;4956980;28;20440;-84
2023/08/30 12:17:35;;;;;;;5.50;5.00;;;19.10;99.90;;;;;;4959301;28;20445;-84
2023/08/30 12:20:03;;;;;;;5.07;4.57;;;19.10;99.90;;;;;;4960600;28;20445;-84
2023/08/30 12:22:38;;;;;;;4.20;3.80;;;19.00;99.90;;;;;;4975831;28;20894;-84
2023/08/30 12:25:14;;;;;;;4.13;3.57;;;19.00;99.90;;;;;;4963218;28;20438;-86
2023/08/30 12:27:40;;;;;;;3.63;3.33;;;19.10;1.00;;;;;;4957070;28;20434;-85
2023/08/30 12:30:06;;;;;;;4.37;3.97;;;19.20;22.20;;;;;;4958255;28;20434;-86
2023/08/30 12:32:32;;;;;;;3.60;3.30;;;19.30;58.00;;;;;;4958973;28;20208;-85
2023/08/30 12:34:57;;;;;;;3.40;2.80;;;19.40;1.00;;;;;;4960343;28;20470;-85
2023/08/30 12:37:24;;;;;;;3.30;3.00;;;19.70;99.90;;;;;;4950580;28;20190;-85
2023/08/30 12:39:49;;;;;;;2.70;2.50;;;20.10;99.90;;;;;;4953994;28;20194;-84
2023/08/30 12:42:15;;;;;;;3.20;2.90;;;20.40;99.90;;;;;;4944689;28;20476;-86